UAL697 KIAH-KSAT
Flight info
| Callsign | UAL697 |
|---|---|
| Flight time | 0h 43m |
| Altitude | 24000 |
| Route | PITZZ5 WAILN QERVO3 |
| Aircraft | A320/M-SDE3FGHIRWY/LB1 |
Departure
| Time | 2026-04-24 07:01 |
|---|---|
| Airport | George Bush Intercontinental Airport (KIAH) |
Arrival
| Time | 2026-04-24 07:44 |
|---|---|
| Airport | San Antonio International Airport (KSAT) |
| Time | Latitude | Longitude | Altitude | Speed | Heading |
|---|---|---|---|---|---|
| 2026-04-24 06:20 | 29.98536 | -95.34058 | 107 ft | 0 kts | 0° |
| 2026-04-24 06:45 | 29.98531 | -95.34058 | 107 ft | 2 kts | 1° |
| 2026-04-24 06:45 | 29.98511 | -95.34059 | 106 ft | 3 kts | 5° |
| 2026-04-24 06:46 | 29.98491 | -95.34061 | 106 ft | 3 kts | 9° |
| 2026-04-24 06:46 | 29.98471 | -95.34065 | 106 ft | 3 kts | 12° |
| 2026-04-24 06:46 | 29.98451 | -95.34070 | 106 ft | 3 kts | 11° |
| 2026-04-24 06:46 | 29.98431 | -95.34074 | 107 ft | 3 kts | 1° |
| 2026-04-24 06:47 | 29.98411 | -95.34074 | 106 ft | 3 kts | 356° |
| 2026-04-24 06:47 | 29.98391 | -95.34072 | 106 ft | 3 kts | 349° |
| 2026-04-24 06:47 | 29.98371 | -95.34066 | 106 ft | 3 kts | 336° |
| 2026-04-24 06:47 | 29.98355 | -95.34055 | 105 ft | 3 kts | 308° |
| 2026-04-24 06:48 | 29.98345 | -95.34038 | 106 ft | 2 kts | 303° |
| 2026-04-24 06:48 | 29.98341 | -95.34033 | 105 ft | 0 kts | 303° |
| 2026-04-24 06:52 | 29.98345 | -95.34039 | 106 ft | 2 kts | 303° |
| 2026-04-24 06:52 | 29.98357 | -95.34060 | 106 ft | 4 kts | 303° |
| 2026-04-24 06:53 | 29.98372 | -95.34098 | 107 ft | 6 kts | 288° |
| 2026-04-24 06:53 | 29.98377 | -95.34154 | 107 ft | 8 kts | 269° |
| 2026-04-24 06:53 | 29.98376 | -95.34230 | 107 ft | 11 kts | 270° |
| 2026-04-24 06:53 | 29.98377 | -95.34320 | 107 ft | 11 kts | 270° |
| 2026-04-24 06:54 | 29.98374 | -95.34409 | 107 ft | 12 kts | 256° |
| 2026-04-24 06:54 | 29.98334 | -95.34490 | 107 ft | 11 kts | 239° |
| 2026-04-24 06:54 | 29.98324 | -95.34586 | 107 ft | 14 kts | 269° |
| 2026-04-24 06:54 | 29.98324 | -95.34697 | 107 ft | 14 kts | 270° |
| 2026-04-24 06:55 | 29.98324 | -95.34802 | 107 ft | 12 kts | 270° |
| 2026-04-24 06:55 | 29.98324 | -95.34898 | 107 ft | 12 kts | 270° |
| 2026-04-24 06:55 | 29.98324 | -95.34995 | 107 ft | 12 kts | 270° |
| 2026-04-24 06:55 | 29.98324 | -95.35087 | 107 ft | 10 kts | 270° |
| 2026-04-24 06:56 | 29.98339 | -95.35171 | 106 ft | 12 kts | 313° |
| 2026-04-24 06:56 | 29.98416 | -95.35222 | 105 ft | 14 kts | 332° |
| 2026-04-24 06:56 | 29.98503 | -95.35276 | 107 ft | 15 kts | 332° |
| 2026-04-24 06:56 | 29.98598 | -95.35334 | 107 ft | 16 kts | 332° |
| 2026-04-24 06:57 | 29.98698 | -95.35395 | 107 ft | 17 kts | 332° |
| 2026-04-24 06:57 | 29.98807 | -95.35462 | 107 ft | 15 kts | 332° |
| 2026-04-24 06:57 | 29.98907 | -95.35523 | 107 ft | 17 kts | 332° |
| 2026-04-24 06:57 | 29.99005 | -95.35584 | 107 ft | 16 kts | 332° |
| 2026-04-24 06:58 | 29.99082 | -95.35637 | 107 ft | 10 kts | 311° |
| 2026-04-24 06:58 | 29.99092 | -95.35717 | 107 ft | 10 kts | 274° |
| 2026-04-24 06:58 | 29.99098 | -95.35805 | 107 ft | 12 kts | 274° |
| 2026-04-24 06:58 | 29.99092 | -95.35912 | 107 ft | 14 kts | 255° |
| 2026-04-24 06:59 | 29.99060 | -95.35996 | 107 ft | 10 kts | 242° |
| 2026-04-24 06:59 | 29.99010 | -95.36042 | 107 ft | 11 kts | 172° |
| 2026-04-24 06:59 | 29.98941 | -95.36004 | 107 ft | 12 kts | 153° |
| 2026-04-24 06:59 | 29.98861 | -95.35970 | 106 ft | 13 kts | 187° |
| 2026-04-24 07:00 | 29.98817 | -95.36036 | 108 ft | 11 kts | 242° |
| 2026-04-24 07:00 | 29.98783 | -95.36109 | 107 ft | 10 kts | 241° |
| 2026-04-24 07:00 | 29.98744 | -95.36118 | 108 ft | 7 kts | 150° |
| 2026-04-24 07:00 | 29.98721 | -95.36103 | 108 ft | 20 kts | 150° |
| 2026-04-24 07:01 | 29.98367 | -95.35887 | 107 ft | 91 kts | 152° |
| 2026-04-24 07:01 | 29.97640 | -95.35441 | 107 ft | 144 kts | 152° |
| 2026-04-24 07:01 | 29.96690 | -95.34842 | 498 ft | 154 kts | 152° |
| 2026-04-24 07:01 | 29.95718 | -95.34311 | 1121 ft | 154 kts | 172° |
| 2026-04-24 07:02 | 29.94706 | -95.34585 | 1811 ft | 158 kts | 216° |
| 2026-04-24 07:02 | 29.93903 | -95.35588 | 2231 ft | 181 kts | 225° |
| 2026-04-24 07:02 | 29.93066 | -95.36783 | 2552 ft | 204 kts | 227° |
| 2026-04-24 07:02 | 29.92131 | -95.38111 | 2985 ft | 227 kts | 227° |
| 2026-04-24 07:03 | 29.91084 | -95.39575 | 3574 ft | 244 kts | 227° |
| 2026-04-24 07:03 | 29.89970 | -95.41091 | 4443 ft | 251 kts | 226° |
| 2026-04-24 07:03 | 29.88810 | -95.42638 | 4813 ft | 255 kts | 226° |
| 2026-04-24 07:03 | 29.87784 | -95.44346 | 5292 ft | 260 kts | 236° |
| 2026-04-24 07:04 | 29.86858 | -95.46156 | 6234 ft | 263 kts | 238° |
| 2026-04-24 07:04 | 29.85951 | -95.48006 | 7052 ft | 267 kts | 239° |
| 2026-04-24 07:04 | 29.85043 | -95.49887 | 7885 ft | 269 kts | 240° |
| 2026-04-24 07:04 | 29.84130 | -95.51789 | 8690 ft | 273 kts | 241° |
| 2026-04-24 07:05 | 29.83205 | -95.53719 | 9506 ft | 276 kts | 242° |
| 2026-04-24 07:05 | 29.82332 | -95.55700 | 10248 ft | 279 kts | 250° |
| 2026-04-24 07:05 | 29.81830 | -95.57880 | 10801 ft | 290 kts | 259° |
| 2026-04-24 07:05 | 29.81429 | -95.60249 | 11015 ft | 312 kts | 259° |
| 2026-04-24 07:06 | 29.81013 | -95.62740 | 11521 ft | 321 kts | 259° |
| 2026-04-24 07:06 | 29.80593 | -95.65243 | 12186 ft | 324 kts | 259° |
| 2026-04-24 07:06 | 29.80162 | -95.67807 | 12899 ft | 327 kts | 260° |
| 2026-04-24 07:06 | 29.79725 | -95.70392 | 13652 ft | 330 kts | 260° |
| 2026-04-24 07:07 | 29.79283 | -95.72998 | 14290 ft | 333 kts | 260° |
| 2026-04-24 07:07 | 29.78832 | -95.75629 | 14939 ft | 336 kts | 260° |
| 2026-04-24 07:07 | 29.77919 | -95.80945 | 16229 ft | 341 kts | 260° |
| 2026-04-24 07:08 | 29.77459 | -95.83637 | 16864 ft | 344 kts | 260° |
| 2026-04-24 07:08 | 29.76993 | -95.86352 | 17502 ft | 346 kts | 261° |
| 2026-04-24 07:08 | 29.76788 | -95.89114 | 18137 ft | 349 kts | 271° |
| 2026-04-24 07:08 | 29.76903 | -95.91917 | 18711 ft | 351 kts | 272° |
| 2026-04-24 07:09 | 29.77020 | -95.94734 | 19309 ft | 353 kts | 272° |
| 2026-04-24 07:09 | 29.77132 | -95.97526 | 19917 ft | 355 kts | 272° |
| 2026-04-24 07:09 | 29.77243 | -96.00368 | 20538 ft | 356 kts | 272° |
| 2026-04-24 07:09 | 29.77354 | -96.03225 | 21138 ft | 358 kts | 272° |
| 2026-04-24 07:10 | 29.77466 | -96.06095 | 21723 ft | 360 kts | 272° |
| 2026-04-24 07:10 | 29.77577 | -96.08981 | 22309 ft | 362 kts | 272° |
| 2026-04-24 07:10 | 29.77686 | -96.11884 | 22895 ft | 363 kts | 272° |
| 2026-04-24 07:10 | 29.77795 | -96.14797 | 23459 ft | 365 kts | 272° |
| 2026-04-24 07:11 | 29.77908 | -96.17720 | 23726 ft | 366 kts | 272° |
| 2026-04-24 07:11 | 29.78050 | -96.20634 | 23788 ft | 360 kts | 274° |
| 2026-04-24 07:11 | 29.78248 | -96.23458 | 23790 ft | 349 kts | 275° |
| 2026-04-24 07:11 | 29.78476 | -96.26226 | 23775 ft | 346 kts | 275° |
| 2026-04-24 07:12 | 29.78710 | -96.28975 | 23759 ft | 345 kts | 275° |
| 2026-04-24 07:12 | 29.78937 | -96.31725 | 23747 ft | 345 kts | 275° |
| 2026-04-24 07:12 | 29.79156 | -96.34477 | 23746 ft | 344 kts | 275° |
| 2026-04-24 07:12 | 29.79366 | -96.37219 | 23744 ft | 344 kts | 275° |
| 2026-04-24 07:13 | 29.79570 | -96.39933 | 23751 ft | 344 kts | 275° |
| 2026-04-24 07:13 | 29.79770 | -96.42679 | 23751 ft | 344 kts | 275° |
| 2026-04-24 07:13 | 29.79971 | -96.45418 | 23752 ft | 343 kts | 275° |
| 2026-04-24 07:13 | 29.80173 | -96.48160 | 23756 ft | 343 kts | 275° |
| 2026-04-24 07:14 | 29.80376 | -96.50901 | 23765 ft | 343 kts | 275° |
| 2026-04-24 07:14 | 29.80577 | -96.53644 | 23768 ft | 343 kts | 275° |
| 2026-04-24 07:14 | 29.80775 | -96.56393 | 23776 ft | 343 kts | 275° |
| 2026-04-24 07:14 | 29.80972 | -96.59136 | 23778 ft | 343 kts | 275° |
| 2026-04-24 07:15 | 29.81171 | -96.61830 | 23785 ft | 343 kts | 275° |
| 2026-04-24 07:15 | 29.81376 | -96.64610 | 23794 ft | 343 kts | 275° |
| 2026-04-24 07:15 | 29.81573 | -96.67314 | 23796 ft | 343 kts | 275° |
| 2026-04-24 07:15 | 29.81774 | -96.70053 | 23798 ft | 343 kts | 275° |
| 2026-04-24 07:16 | 29.81977 | -96.72793 | 23799 ft | 343 kts | 275° |
| 2026-04-24 07:16 | 29.82176 | -96.75525 | 23802 ft | 343 kts | 275° |
| 2026-04-24 07:16 | 29.82376 | -96.78260 | 23801 ft | 343 kts | 275° |
| 2026-04-24 07:16 | 29.82578 | -96.80992 | 23801 ft | 342 kts | 275° |
| 2026-04-24 07:17 | 29.82776 | -96.83724 | 23804 ft | 342 kts | 275° |
| 2026-04-24 07:17 | 29.82974 | -96.86452 | 23807 ft | 342 kts | 275° |
| 2026-04-24 07:17 | 29.83170 | -96.89178 | 23805 ft | 341 kts | 275° |
| 2026-04-24 07:17 | 29.83365 | -96.91904 | 23807 ft | 341 kts | 274° |
| 2026-04-24 07:18 | 29.83557 | -96.94628 | 23807 ft | 341 kts | 275° |
| 2026-04-24 07:18 | 29.83749 | -96.97347 | 23807 ft | 341 kts | 275° |
| 2026-04-24 07:18 | 29.83944 | -97.00070 | 23810 ft | 341 kts | 275° |
| 2026-04-24 07:18 | 29.84137 | -97.02790 | 23807 ft | 341 kts | 274° |
| 2026-04-24 07:19 | 29.84326 | -97.05508 | 23810 ft | 340 kts | 274° |
| 2026-04-24 07:19 | 29.84517 | -97.08228 | 23811 ft | 340 kts | 274° |
| 2026-04-24 07:19 | 29.84709 | -97.10945 | 23812 ft | 340 kts | 275° |
| 2026-04-24 07:19 | 29.84902 | -97.13665 | 23810 ft | 340 kts | 275° |
| 2026-04-24 07:20 | 29.85096 | -97.16378 | 23815 ft | 340 kts | 274° |
| 2026-04-24 07:20 | 29.85284 | -97.19089 | 23817 ft | 340 kts | 274° |
| 2026-04-24 07:20 | 29.85472 | -97.21806 | 23786 ft | 339 kts | 274° |
| 2026-04-24 07:20 | 29.85659 | -97.24482 | 23559 ft | 331 kts | 274° |
| 2026-04-24 07:21 | 29.85842 | -97.27100 | 23334 ft | 324 kts | 274° |
| 2026-04-24 07:21 | 29.86021 | -97.29672 | 23073 ft | 320 kts | 274° |
| 2026-04-24 07:21 | 29.86196 | -97.32191 | 22809 ft | 319 kts | 274° |
| 2026-04-24 07:21 | 29.86370 | -97.34737 | 22550 ft | 319 kts | 274° |
| 2026-04-24 07:22 | 29.86542 | -97.37285 | 22291 ft | 319 kts | 274° |
| 2026-04-24 07:22 | 29.86716 | -97.39825 | 22036 ft | 318 kts | 274° |
| 2026-04-24 07:22 | 29.86889 | -97.42344 | 21780 ft | 312 kts | 274° |
| 2026-04-24 07:22 | 29.87060 | -97.44828 | 21377 ft | 310 kts | 274° |
| 2026-04-24 07:23 | 29.87173 | -97.46501 | 21095 ft | 310 kts | 274° |
| 2026-04-24 07:23 | 29.87338 | -97.48972 | 20681 ft | 309 kts | 274° |
| 2026-04-24 07:23 | 29.87501 | -97.51396 | 20365 ft | 305 kts | 274° |
| 2026-04-24 07:23 | 29.87667 | -97.53857 | 19987 ft | 304 kts | 274° |
| 2026-04-24 07:24 | 29.87830 | -97.56284 | 19591 ft | 304 kts | 274° |
| 2026-04-24 07:24 | 29.87992 | -97.58685 | 19188 ft | 304 kts | 274° |
| 2026-04-24 07:24 | 29.88151 | -97.61117 | 18788 ft | 305 kts | 274° |
| 2026-04-24 07:24 | 29.88308 | -97.63548 | 18669 ft | 311 kts | 274° |
| 2026-04-24 07:25 | 29.88471 | -97.66071 | 18339 ft | 319 kts | 274° |
| 2026-04-24 07:25 | 29.88637 | -97.68622 | 17890 ft | 320 kts | 274° |
| 2026-04-24 07:25 | 29.88810 | -97.71259 | 17426 ft | 337 kts | 274° |
| 2026-04-24 07:25 | 29.88990 | -97.73974 | 16959 ft | 341 kts | 274° |
| 2026-04-24 07:26 | 29.89169 | -97.76696 | 16486 ft | 340 kts | 274° |
| 2026-04-24 07:26 | 29.89348 | -97.79400 | 16016 ft | 338 kts | 274° |
| 2026-04-24 07:26 | 29.89523 | -97.82095 | 15541 ft | 336 kts | 274° |
| 2026-04-24 07:26 | 29.89642 | -97.84772 | 15069 ft | 334 kts | 268° |
| 2026-04-24 07:27 | 29.89315 | -97.87406 | 14572 ft | 333 kts | 255° |
| 2026-04-24 07:27 | 29.88553 | -97.89923 | 14061 ft | 333 kts | 250° |
| 2026-04-24 07:27 | 29.87743 | -97.92381 | 13549 ft | 332 kts | 250° |
| 2026-04-24 07:27 | 29.86910 | -97.94902 | 13006 ft | 331 kts | 250° |
| 2026-04-24 07:28 | 29.86099 | -97.97343 | 12460 ft | 331 kts | 250° |
| 2026-04-24 07:28 | 29.85271 | -97.99815 | 11923 ft | 330 kts | 250° |
| 2026-04-24 07:28 | 29.84449 | -98.02256 | 11402 ft | 325 kts | 250° |
| 2026-04-24 07:28 | 29.83638 | -98.04674 | 10808 ft | 321 kts | 251° |
| 2026-04-24 07:29 | 29.82841 | -98.07055 | 10305 ft | 316 kts | 251° |
| 2026-04-24 07:29 | 29.82072 | -98.09348 | 10170 ft | 298 kts | 251° |
| 2026-04-24 07:29 | 29.81344 | -98.11524 | 9907 ft | 287 kts | 251° |
| 2026-04-24 07:29 | 29.80641 | -98.13635 | 9780 ft | 281 kts | 251° |
| 2026-04-24 07:30 | 29.79944 | -98.15738 | 9655 ft | 281 kts | 251° |
| 2026-04-24 07:30 | 29.79248 | -98.17842 | 9492 ft | 281 kts | 251° |
| 2026-04-24 07:30 | 29.78557 | -98.19935 | 9206 ft | 279 kts | 251° |
| 2026-04-24 07:30 | 29.77869 | -98.22019 | 8892 ft | 277 kts | 251° |
| 2026-04-24 07:31 | 29.77182 | -98.24089 | 8594 ft | 276 kts | 251° |
| 2026-04-24 07:31 | 29.76491 | -98.26153 | 8311 ft | 276 kts | 251° |
| 2026-04-24 07:31 | 29.75811 | -98.28190 | 7953 ft | 276 kts | 251° |
| 2026-04-24 07:31 | 29.75118 | -98.30264 | 7527 ft | 279 kts | 251° |
| 2026-04-24 07:32 | 29.74427 | -98.32327 | 7077 ft | 276 kts | 250° |
| 2026-04-24 07:32 | 29.73739 | -98.34381 | 6674 ft | 272 kts | 250° |
| 2026-04-24 07:32 | 29.73061 | -98.36404 | 6353 ft | 265 kts | 251° |
| 2026-04-24 07:32 | 29.72435 | -98.38311 | 6268 ft | 245 kts | 251° |
| 2026-04-24 07:33 | 29.71863 | -98.40082 | 6171 ft | 229 kts | 251° |
| 2026-04-24 07:33 | 29.71319 | -98.41771 | 6075 ft | 224 kts | 251° |
| 2026-04-24 07:33 | 29.70942 | -98.43492 | 5976 ft | 221 kts | 266° |
| 2026-04-24 07:33 | 29.70977 | -98.45257 | 5998 ft | 221 kts | 272° |
| 2026-04-24 07:34 | 29.71041 | -98.47028 | 5988 ft | 222 kts | 271° |
| 2026-04-24 07:34 | 29.71099 | -98.48801 | 5990 ft | 221 kts | 271° |
| 2026-04-24 07:34 | 29.71156 | -98.50566 | 5989 ft | 221 kts | 271° |
| 2026-04-24 07:34 | 29.71212 | -98.52340 | 5996 ft | 222 kts | 271° |
| 2026-04-24 07:35 | 29.71268 | -98.54120 | 5996 ft | 222 kts | 271° |
| 2026-04-24 07:35 | 29.71349 | -98.55884 | 5989 ft | 221 kts | 278° |
| 2026-04-24 07:35 | 29.71852 | -98.57546 | 5986 ft | 222 kts | 298° |
| 2026-04-24 07:35 | 29.72817 | -98.58946 | 5999 ft | 225 kts | 309° |
| 2026-04-24 07:36 | 29.73855 | -98.60288 | 5941 ft | 222 kts | 308° |
| 2026-04-24 07:36 | 29.74882 | -98.61623 | 5598 ft | 224 kts | 307° |
| 2026-04-24 07:36 | 29.75905 | -98.62959 | 5217 ft | 228 kts | 307° |
| 2026-04-24 07:36 | 29.76958 | -98.64334 | 4984 ft | 229 kts | 307° |
| 2026-04-24 07:37 | 29.77833 | -98.65855 | 4979 ft | 227 kts | 283° |
| 2026-04-24 07:37 | 29.77894 | -98.67609 | 4976 ft | 219 kts | 250° |
| 2026-04-24 07:37 | 29.77140 | -98.69079 | 4978 ft | 214 kts | 227° |
| 2026-04-24 07:37 | 29.76105 | -98.70314 | 4976 ft | 215 kts | 224° |
| 2026-04-24 07:38 | 29.75029 | -98.71524 | 4979 ft | 215 kts | 224° |
| 2026-04-24 07:38 | 29.73804 | -98.72477 | 4974 ft | 215 kts | 194° |
| 2026-04-24 07:38 | 29.72353 | -98.72304 | 4979 ft | 222 kts | 155° |
| 2026-04-24 07:38 | 29.71284 | -98.70993 | 4985 ft | 234 kts | 122° |
| 2026-04-24 07:39 | 29.70453 | -98.69391 | 4976 ft | 231 kts | 134° |
| 2026-04-24 07:39 | 29.69382 | -98.68015 | 4983 ft | 231 kts | 137° |
| 2026-04-24 07:39 | 29.68298 | -98.66655 | 4801 ft | 229 kts | 136° |
| 2026-04-24 07:39 | 29.67238 | -98.65292 | 4527 ft | 228 kts | 135° |
| 2026-04-24 07:40 | 29.66189 | -98.63935 | 4239 ft | 226 kts | 135° |
| 2026-04-24 07:40 | 29.65155 | -98.62597 | 3946 ft | 219 kts | 136° |
| 2026-04-24 07:40 | 29.64173 | -98.61325 | 3671 ft | 206 kts | 136° |
| 2026-04-24 07:40 | 29.63252 | -98.60134 | 3422 ft | 193 kts | 136° |
| 2026-04-24 07:41 | 29.62388 | -98.59017 | 3215 ft | 183 kts | 137° |
| 2026-04-24 07:41 | 29.61566 | -98.57956 | 2956 ft | 173 kts | 138° |
| 2026-04-24 07:41 | 29.60789 | -98.56953 | 2736 ft | 162 kts | 139° |
| 2026-04-24 07:41 | 29.60071 | -98.56025 | 2526 ft | 149 kts | 138° |
| 2026-04-24 07:42 | 29.59403 | -98.55164 | 2350 ft | 140 kts | 139° |
| 2026-04-24 07:42 | 29.58763 | -98.54339 | 2174 ft | 136 kts | 139° |
| 2026-04-24 07:42 | 29.58149 | -98.53549 | 2008 ft | 133 kts | 139° |
| 2026-04-24 07:42 | 29.57534 | -98.52756 | 1839 ft | 133 kts | 135° |
| 2026-04-24 07:43 | 29.56919 | -98.51963 | 1662 ft | 133 kts | 135° |
| 2026-04-24 07:43 | 29.56298 | -98.51165 | 1478 ft | 136 kts | 136° |
| 2026-04-24 07:43 | 29.55677 | -98.50368 | 1313 ft | 132 kts | 135° |
| 2026-04-24 07:43 | 29.55066 | -98.49572 | 1102 ft | 133 kts | 133° |
| 2026-04-24 07:44 | 29.54450 | -98.48774 | 885 ft | 133 kts | 134° |
| 2026-04-24 07:44 | 29.53854 | -98.48016 | 798 ft | 113 kts | 131° |
| 2026-04-24 07:44 | 29.53445 | -98.47488 | 798 ft | 64 kts | 131° |
| 2026-04-24 07:44 | 29.53259 | -98.47245 | 798 ft | 26 kts | 131° |
| 2026-04-24 07:45 | 29.53159 | -98.47118 | 798 ft | 12 kts | 131° |
| 2026-04-24 07:45 | 29.53118 | -98.47065 | 798 ft | 8 kts | 134° |
| 2026-04-24 07:45 | 29.53083 | -98.47052 | 798 ft | 5 kts | 183° |
| 2026-04-24 07:45 | 29.53054 | -98.47071 | 798 ft | 1 kts | 223° |
| 2026-04-24 07:46 | 29.53039 | -98.47086 | 798 ft | 4 kts | 223° |
| 2026-04-24 07:46 | 29.53018 | -98.47118 | 798 ft | 5 kts | 264° |
| 2026-04-24 07:46 | 29.53028 | -98.47141 | 798 ft | 3 kts | 310° |
| 2026-04-24 07:46 | 29.53046 | -98.47165 | 798 ft | 5 kts | 307° |
| 2026-04-24 07:47 | 29.53028 | -98.47192 | 798 ft | 5 kts | 214° |
| 2026-04-24 07:47 | 29.53019 | -98.47227 | 798 ft | 4 kts | 278° |
| 2026-04-24 07:47 | 29.53016 | -98.47269 | 798 ft | 6 kts | 242° |
| 2026-04-24 07:47 | 29.52990 | -98.47295 | 798 ft | 5 kts | 219° |
| 2026-04-24 07:48 | 29.52956 | -98.47317 | 798 ft | 5 kts | 186° |
| 2026-04-24 07:48 | 29.52931 | -98.47292 | 798 ft | 6 kts | 128° |
| 2026-04-24 07:48 | 29.52914 | -98.47269 | 798 ft | 1 kts | 131° |
| 2026-04-24 07:48 | 29.52913 | -98.47267 | 798 ft | 0 kts | 131° |